createdAt,value
2017-07-12T00:00:01.841Z,961.0
2017-07-12T00:01:03.910Z,966.8
2017-07-12T00:02:05.850Z,954.8
2017-07-12T00:03:07.883Z,956.7
2017-07-12T00:04:09.638Z,961.4
2017-07-12T00:05:11.611Z,964.5
2017-07-12T00:06:13.375Z,950.3
2017-07-12T00:07:15.255Z,958.3
2017-07-12T00:08:17.113Z,974.2
2017-07-12T00:09:19.050Z,953.5
2017-07-12T00:10:20.940Z,971.2
2017-07-12T00:11:22.976Z,954.3
2017-07-12T00:12:24.823Z,964.8
2017-07-12T00:13:26.625Z,973.2
2017-07-12T00:14:28.322Z,977.0
2017-07-12T00:15:30.297Z,956.5
2017-07-12T00:16:32.245Z,966.0
2017-07-12T00:17:34.234Z,985.7
2017-07-12T00:18:36.252Z,961.1
2017-07-12T00:19:38.041Z,953.4
2017-07-12T00:20:39.879Z,976.3
2017-07-12T00:21:41.631Z,970.2
2017-07-12T00:22:43.387Z,999.9
2017-07-12T00:23:45.613Z,976.8
2017-07-12T00:24:47.349Z,970.6
2017-07-12T00:25:49.249Z,975.0
2017-07-12T00:26:50.995Z,952.7
2017-07-12T00:27:52.843Z,967.7
2017-07-12T00:28:54.656Z,967.3
2017-07-12T00:29:56.544Z,973.8
2017-07-12T00:30:58.270Z,980.2
2017-07-12T00:32:00.128Z,970.5
2017-07-12T00:33:01.972Z,979.8
2017-07-12T00:34:03.878Z,963.4
2017-07-12T00:35:06.820Z,960.8
2017-07-12T00:36:08.561Z,958.3
2017-07-12T00:37:10.274Z,963.3
2017-07-12T00:38:12.086Z,967.5
2017-07-12T00:39:14.409Z,943.6
2017-07-12T00:40:16.275Z,939.1
2017-07-12T00:41:18.803Z,943.0
2017-07-12T00:42:20.690Z,952.8
2017-07-12T00:43:22.461Z,942.9
2017-07-12T00:44:24.311Z,942.4
2017-07-12T00:45:26.010Z,939.2
2017-07-12T00:46:27.763Z,941.5
2017-07-12T00:47:29.580Z,942.5
2017-07-12T00:48:31.334Z,936.7
2017-07-12T00:49:33.397Z,959.1
2017-07-12T00:50:35.208Z,942.9
2017-07-12T00:51:37.009Z,940.3
2017-07-12T00:52:38.768Z,945.1
2017-07-12T00:53:41.555Z,954.9
2017-07-12T00:54:43.394Z,934.1
2017-07-12T00:55:45.262Z,949.7
2017-07-12T00:56:47.109Z,950.9
2017-07-12T00:57:48.972Z,948.5
2017-07-12T00:58:50.840Z,957.7
2017-07-12T00:59:52.620Z,950.9
2017-07-12T01:00:54.332Z,944.1
2017-07-12T01:01:56.119Z,948.6
2017-07-12T01:02:57.902Z,949.9
2017-07-12T01:03:59.615Z,954.0
2017-07-12T01:05:01.385Z,955.0
2017-07-12T01:06:04.204Z,951.2
2017-07-12T01:07:05.967Z,949.1
2017-07-12T01:08:08.744Z,944.6
2017-07-12T01:09:10.494Z,951.8
2017-07-12T01:10:12.324Z,951.8
2017-07-12T01:11:14.092Z,965.2
2017-07-12T01:12:15.927Z,957.1
2017-07-12T01:13:17.616Z,951.7
2017-07-12T01:14:19.418Z,955.6
2017-07-12T01:15:21.186Z,636.0
2017-07-12T01:16:22.907Z,946.3
2017-07-12T01:17:24.663Z,931.1
2017-07-12T01:18:26.514Z,940.7
2017-07-12T01:19:28.322Z,940.5
2017-07-12T01:20:30.117Z,937.5
2017-07-12T01:21:31.859Z,940.5
2017-07-12T01:22:33.661Z,959.0
2017-07-12T01:23:35.539Z,954.5
2017-07-12T01:24:37.330Z,949.6
2017-07-12T01:25:39.008Z,947.3
2017-07-12T01:26:40.899Z,957.4
2017-07-12T01:27:42.616Z,952.4
2017-07-12T01:28:44.327Z,953.2
2017-07-12T01:29:46.078Z,954.3
2017-07-12T01:30:47.797Z,961.9
2017-07-12T01:31:49.557Z,952.7
2017-07-12T01:32:52.423Z,963.1
2017-07-12T01:33:54.192Z,968.0
2017-07-12T01:34:56.991Z,970.4
2017-07-12T01:35:58.784Z,956.9
2017-07-12T01:37:00.660Z,964.9
2017-07-12T01:38:02.385Z,963.9
2017-07-12T01:39:04.228Z,967.4
2017-07-12T01:40:05.987Z,971.6
2017-07-12T01:41:07.779Z,982.5
2017-07-12T01:42:09.601Z,969.1
2017-07-12T01:43:11.433Z,961.5
2017-07-12T01:44:13.165Z,975.2
2017-07-12T01:45:15.981Z,979.1
2017-07-12T01:46:17.745Z,959.9
2017-07-12T01:47:19.601Z,971.7
2017-07-12T01:48:21.340Z,980.7
2017-07-12T01:49:25.601Z,970.7
2017-07-12T01:50:27.371Z,964.3
2017-07-12T01:51:29.212Z,960.1
2017-07-12T01:52:30.912Z,969.6
2017-07-12T01:53:32.690Z,975.2
2017-07-12T01:54:34.453Z,976.5
2017-07-12T01:55:36.284Z,973.5
2017-07-12T01:56:38.026Z,968.9
2017-07-12T01:57:39.776Z,974.5
2017-07-12T01:58:41.542Z,980.6
2017-07-12T01:59:43.381Z,981.5
2017-07-12T02:00:45.120Z,972.8
2017-07-12T02:01:47.901Z,964.6
2017-07-12T02:02:49.640Z,963.2
2017-07-12T02:03:51.378Z,974.4
2017-07-12T02:04:53.106Z,960.3
2017-07-12T02:05:54.879Z,977.0
2017-07-12T02:06:56.644Z,967.7
2017-07-12T02:07:58.482Z,977.5
2017-07-12T02:09:00.232Z,968.1
2017-07-12T02:10:02.131Z,981.2
2017-07-12T02:11:03.900Z,973.5
2017-07-12T02:12:05.710Z,972.5
2017-07-12T02:13:07.471Z,970.3
2017-07-12T02:14:09.264Z,978.0
2017-07-12T02:15:11.008Z,972.5
2017-07-12T02:16:13.785Z,976.6
2017-07-12T02:17:15.553Z,983.1
2017-07-12T02:18:17.452Z,976.5
2017-07-12T02:19:19.190Z,977.9
2017-07-12T02:20:21.020Z,969.7
2017-07-12T02:21:22.781Z,966.8
2017-07-12T02:22:24.592Z,975.2
2017-07-12T02:23:26.307Z,973.9
2017-07-12T02:24:28.151Z,975.4
2017-07-12T02:25:29.905Z,966.4
2017-07-12T02:26:32.653Z,963.9
2017-07-12T02:27:34.437Z,973.1
2017-07-12T02:28:36.214Z,974.3
2017-07-12T02:29:37.963Z,967.1
2017-07-12T02:30:39.796Z,972.5
2017-07-12T02:31:41.564Z,975.0
2017-07-12T02:32:43.318Z,974.5
2017-07-12T02:33:45.077Z,972.0
2017-07-12T02:34:47.925Z,975.5
2017-07-12T02:35:49.599Z,974.4
2017-07-12T02:36:52.424Z,973.1
2017-07-12T02:37:54.172Z,971.6
2017-07-12T02:38:55.966Z,962.9
2017-07-12T02:39:57.701Z,971.2
2017-07-12T02:40:59.539Z,942.6
2017-07-12T02:42:01.282Z,934.8
2017-07-12T02:43:03.117Z,940.6
2017-07-12T02:44:04.851Z,939.4
2017-07-12T02:45:06.606Z,947.7
2017-07-12T02:46:08.339Z,954.9
2017-07-12T02:47:10.145Z,988.9
2017-07-12T02:48:11.908Z,978.7
2017-07-12T02:49:13.627Z,967.3
2017-07-12T02:50:15.382Z,970.3
2017-07-12T02:51:17.215Z,964.9
2017-07-12T02:52:18.973Z,981.3
2017-07-12T02:53:20.792Z,973.0
2017-07-12T02:54:22.544Z,982.4
2017-07-12T02:55:24.283Z,974.9
2017-07-12T02:56:25.958Z,975.0
2017-07-12T02:57:28.719Z,978.7
2017-07-12T02:58:30.488Z,980.5
2017-07-12T02:59:32.249Z,976.5
2017-07-12T03:00:33.996Z,974.3
2017-07-12T03:01:35.807Z,962.3
2017-07-12T03:02:37.515Z,981.1
2017-07-12T03:03:39.312Z,966.0
2017-07-12T03:04:41.067Z,968.7
2017-07-12T03:05:42.882Z,975.6
2017-07-12T03:06:44.626Z,972.8
2017-07-12T03:07:46.421Z,968.4
2017-07-12T03:08:48.148Z,969.9
2017-07-12T03:09:49.996Z,979.1
2017-07-12T03:10:51.756Z,983.6
2017-07-12T03:11:53.518Z,992.1
2017-07-12T03:12:55.262Z,992.2
2017-07-12T03:13:58.100Z,985.0
2017-07-12T03:14:59.819Z,992.8
2017-07-12T03:16:01.640Z,991.1
2017-07-12T03:17:03.418Z,983.0
2017-07-12T03:18:06.172Z,983.1
2017-07-12T03:19:07.902Z,987.0
2017-07-12T03:20:09.743Z,990.9
2017-07-12T03:21:11.494Z,993.2
2017-07-12T03:22:13.344Z,997.5
2017-07-12T03:23:15.092Z,992.8
2017-07-12T03:24:16.871Z,993.6
2017-07-12T03:25:18.616Z,999.8
2017-07-12T03:26:20.428Z,988.4
2017-07-12T03:27:22.174Z,995.5
2017-07-12T03:28:24.014Z,993.7
2017-07-12T03:29:26.372Z,998.6
2017-07-12T03:30:28.224Z,994.2
2017-07-12T03:31:29.995Z,997.3
2017-07-12T03:32:32.766Z,989.5
2017-07-12T03:33:34.544Z,998.4
2017-07-12T03:34:36.336Z,991.7
2017-07-12T03:35:38.077Z,999.9
2017-07-12T03:36:40.883Z,999.9
2017-07-12T03:37:42.660Z,999.9
2017-07-12T03:38:44.435Z,992.6
2017-07-12T03:39:46.177Z,999.9
2017-07-12T03:40:47.957Z,996.1
2017-07-12T03:41:49.720Z,997.1
2017-07-12T03:42:51.596Z,980.9
2017-07-12T03:43:53.370Z,987.7
2017-07-12T03:44:55.186Z,999.9
2017-07-12T03:45:56.936Z,999.0
2017-07-12T03:46:58.622Z,999.9
2017-07-12T03:48:00.369Z,999.9
2017-07-12T03:49:02.154Z,995.2
2017-07-12T03:50:03.908Z,999.9
2017-07-12T03:51:05.758Z,990.4
2017-07-12T03:52:07.507Z,989.7
2017-07-12T03:53:09.393Z,999.9
2017-07-12T03:54:11.120Z,999.9
2017-07-12T03:55:12.965Z,999.9
2017-07-12T03:56:14.709Z,994.9
2017-07-12T03:57:16.462Z,986.9
2017-07-12T03:58:18.212Z,991.8
2017-07-12T03:59:20.040Z,999.9
2017-07-12T04:00:21.785Z,999.9
2017-07-12T04:01:23.626Z,999.9
2017-07-12T04:02:25.873Z,999.9
2017-07-12T04:03:27.766Z,999.9
2017-07-12T04:04:29.510Z,999.9
2017-07-12T04:05:31.258Z,999.9
2017-07-12T04:06:33.004Z,999.9
2017-07-12T04:07:35.882Z,999.9
2017-07-12T04:08:37.613Z,999.9
2017-07-12T04:09:39.513Z,999.9
2017-07-12T04:10:41.265Z,999.9
2017-07-12T04:11:44.042Z,994.9
2017-07-12T04:12:45.906Z,999.9
2017-07-12T04:13:47.654Z,999.9
2017-07-12T04:14:49.370Z,999.9
2017-07-12T04:15:52.188Z,999.9
2017-07-12T04:16:53.945Z,999.9
2017-07-12T04:17:55.697Z,999.9
2017-07-12T04:18:57.453Z,999.9
2017-07-12T04:20:00.319Z,999.9
2017-07-12T04:21:02.047Z,999.9
2017-07-12T04:22:03.898Z,999.9
2017-07-12T04:23:05.637Z,993.2
2017-07-12T04:24:07.383Z,997.2
2017-07-12T04:25:09.157Z,992.9
2017-07-12T04:26:12.021Z,990.4
2017-07-12T04:27:13.773Z,998.9
2017-07-12T04:28:15.622Z,999.9
2017-07-12T04:29:17.408Z,999.9
2017-07-12T04:30:19.161Z,999.8
2017-07-12T04:31:20.935Z,990.3
2017-07-12T04:32:22.729Z,984.1
2017-07-12T04:33:24.398Z,994.6
2017-07-12T04:34:26.201Z,988.2
2017-07-12T04:35:27.964Z,964.7
2017-07-12T04:36:29.719Z,994.8
2017-07-12T04:37:31.466Z,981.6
2017-07-12T04:38:34.314Z,994.0
2017-07-12T04:39:36.085Z,989.1
2017-07-12T04:40:37.907Z,974.9
2017-07-12T04:41:39.672Z,970.0
2017-07-12T04:42:41.434Z,980.6
2017-07-12T04:43:43.210Z,975.7
2017-07-12T04:44:45.009Z,956.4
2017-07-12T04:45:46.755Z,966.6
2017-07-12T04:46:48.535Z,969.2
2017-07-12T04:47:50.232Z,962.6
2017-07-12T04:48:52.045Z,955.4
2017-07-12T04:49:53.744Z,953.3
2017-07-12T04:50:55.542Z,937.6
2017-07-12T04:51:57.286Z,943.9
2017-07-12T04:52:59.139Z,950.3
2017-07-12T04:54:00.921Z,931.2
2017-07-12T04:55:03.762Z,942.0
2017-07-12T04:56:05.501Z,913.5
2017-07-12T04:57:07.385Z,945.2
2017-07-12T04:58:09.188Z,907.8
2017-07-12T04:59:10.948Z,957.5
2017-07-12T05:00:12.615Z,941.3
2017-07-12T05:01:14.453Z,957.2
2017-07-12T05:02:16.235Z,939.2
2017-07-12T05:03:18.033Z,932.8
2017-07-12T05:04:19.714Z,939.0
2017-07-12T05:05:21.614Z,937.7
2017-07-12T05:06:23.304Z,939.4
2017-07-12T05:07:26.143Z,932.0
2017-07-12T05:08:27.834Z,943.0
2017-07-12T05:09:29.633Z,953.8
2017-07-12T05:10:31.317Z,918.7
2017-07-12T05:11:33.156Z,921.3
2017-07-12T05:12:34.831Z,921.7
2017-07-12T05:13:36.673Z,918.3
2017-07-12T05:14:38.368Z,927.3
2017-07-12T05:15:40.257Z,927.9
2017-07-12T05:16:41.934Z,926.4
2017-07-12T05:17:43.730Z,922.4
2017-07-12T05:18:45.386Z,915.4
2017-07-12T05:19:47.259Z,927.3
2017-07-12T05:20:48.949Z,914.7
2017-07-12T05:21:50.903Z,912.3
2017-07-12T05:22:52.582Z,890.1
2017-07-12T05:23:54.426Z,915.7
2017-07-12T05:24:56.113Z,913.8
2017-07-12T05:25:59.998Z,914.8
2017-07-12T05:27:01.664Z,896.3
2017-07-12T05:28:03.549Z,913.5
2017-07-12T05:29:05.230Z,922.8
2017-07-12T05:30:07.069Z,914.5
2017-07-12T05:31:08.811Z,914.2
2017-07-12T05:32:10.638Z,906.6
2017-07-12T05:33:12.354Z,911.2
2017-07-12T05:34:14.154Z,906.9
2017-07-12T05:35:25.316Z,901.9
2017-07-12T05:36:27.034Z,906.7
2017-07-12T05:37:28.868Z,888.7
2017-07-12T05:38:30.608Z,885.5
2017-07-12T05:39:32.331Z,900.1
2017-07-12T05:40:33.997Z,880.2
2017-07-12T05:41:36.750Z,885.3
2017-07-12T05:42:38.417Z,876.3
2017-07-12T05:43:40.330Z,888.2
2017-07-12T05:44:42.137Z,868.4
2017-07-12T05:45:43.986Z,883.5
2017-07-12T05:46:45.672Z,897.1
2017-07-12T05:47:47.441Z,889.0
2017-07-12T05:48:49.118Z,879.7
2017-07-12T05:49:50.977Z,895.5
2017-07-12T05:50:52.700Z,887.2
2017-07-12T05:51:54.466Z,849.5
2017-07-12T05:52:56.130Z,902.5
2017-07-12T05:53:58.944Z,881.8
2017-07-12T05:55:00.637Z,853.8
2017-07-12T05:56:02.412Z,911.2
2017-07-12T05:57:04.073Z,883.4
2017-07-12T05:58:05.832Z,865.8
2017-07-12T05:59:07.498Z,875.6
2017-07-12T06:00:11.314Z,874.8
2017-07-12T06:01:12.936Z,905.9
2017-07-12T06:02:14.700Z,864.0
2017-07-12T06:03:16.432Z,888.0
2017-07-12T06:04:18.131Z,866.0
2017-07-12T06:05:19.913Z,908.2
2017-07-12T06:06:21.627Z,872.6
2017-07-12T06:07:23.345Z,872.7
2017-07-12T06:08:25.127Z,912.6
2017-07-12T06:09:26.822Z,890.4
2017-07-12T06:10:29.565Z,870.2
2017-07-12T06:11:31.226Z,867.2
2017-07-12T06:12:32.996Z,893.0
2017-07-12T06:13:34.660Z,891.4
2017-07-12T06:14:36.427Z,883.4
2017-07-12T06:15:38.120Z,872.8
2017-07-12T06:16:48.268Z,881.0
2017-07-12T06:17:49.969Z,877.4
2017-07-12T06:18:51.776Z,880.6
2017-07-12T06:19:53.443Z,888.7
2017-07-12T06:20:55.267Z,893.1
2017-07-12T06:21:56.954Z,911.9
2017-07-12T06:22:58.817Z,918.2
2017-07-12T06:24:00.517Z,899.4
2017-07-12T06:25:02.401Z,895.2
2017-07-12T06:26:57.920Z,979.2
2017-07-12T06:27:59.601Z,876.2
2017-07-12T06:29:03.474Z,944.4
2017-07-12T06:30:05.187Z,932.4
2017-07-12T06:31:13.600Z,939.7
2017-07-12T06:32:15.430Z,928.8
2017-07-12T07:51:12.363Z,920.8
2017-07-12T07:52:14.223Z,984.5
2017-07-12T07:53:15.991Z,984.5
2017-07-12T07:54:17.932Z,983.1
2017-07-12T07:55:19.637Z,791.3
2017-07-12T07:56:21.517Z,771.6
2017-07-12T07:57:23.218Z,735.3
2017-07-12T07:58:25.089Z,770.2
2017-07-12T07:59:26.790Z,846.1
2017-07-12T08:00:28.694Z,750.4
2017-07-12T08:01:30.356Z,877.1
2017-07-12T08:02:32.113Z,829.3
2017-07-12T08:03:33.877Z,821.1
2017-07-12T08:04:35.654Z,839.2
2017-07-12T08:05:37.345Z,816.7
2017-07-12T08:06:39.133Z,776.6
2017-07-12T08:07:40.833Z,806.1
2017-07-12T08:08:42.598Z,779.2
2017-07-12T08:09:44.280Z,809.8
2017-07-12T08:10:46.061Z,856.8
2017-07-12T08:11:47.777Z,822.8
2017-07-12T08:12:49.493Z,802.8
2017-07-12T08:13:51.166Z,824.2
2017-07-12T08:14:52.890Z,751.9
2017-07-12T08:15:54.639Z,830.6
2017-07-12T08:16:57.434Z,829.8
2017-07-12T08:17:59.146Z,838.2
2017-07-12T08:19:00.914Z,847.3
2017-07-12T08:20:02.754Z,834.1
2017-07-12T08:21:04.515Z,855.3
2017-07-12T08:22:06.192Z,841.9
2017-07-12T08:23:08.010Z,872.9
2017-07-12T08:24:09.695Z,903.4
2017-07-12T08:25:11.387Z,861.3
2017-07-12T08:26:13.086Z,888.4
2017-07-12T08:27:14.871Z,863.7
2017-07-12T08:28:16.535Z,882.6
2017-07-12T08:29:18.297Z,0.0
2017-07-12T08:30:20.352Z,0.0
2017-07-12T08:31:22.060Z,0.0
2017-07-12T08:32:23.721Z,0.0
2017-07-12T08:33:25.449Z,0.0
2017-07-12T08:34:27.113Z,0.0
2017-07-12T08:35:28.860Z,0.0
2017-07-12T08:36:30.520Z,0.0
2017-07-12T08:37:33.274Z,0.0
2017-07-12T08:38:34.929Z,0.0
2017-07-12T08:39:36.668Z,0.0
2017-07-12T08:40:38.322Z,0.0
2017-07-12T08:41:40.051Z,0.0
2017-07-12T08:42:41.720Z,0.0
2017-07-12T08:43:43.443Z,0.0
2017-07-12T08:44:45.147Z,0.0
2017-07-12T08:45:47.900Z,0.0
2017-07-12T08:46:49.569Z,0.0
2017-07-12T08:47:52.382Z,0.0
2017-07-12T08:48:54.088Z,0.0
2017-07-12T08:49:55.911Z,0.0
2017-07-12T08:50:57.604Z,0.0
2017-07-12T08:51:59.437Z,0.0
2017-07-12T08:53:01.097Z,0.0
2017-07-12T08:54:03.926Z,0.0
2017-07-12T08:55:05.602Z,0.0
2017-07-12T08:56:07.394Z,0.0
2017-07-12T08:57:09.135Z,0.0
2017-07-12T08:58:10.897Z,0.0
2017-07-12T08:59:12.574Z,0.0
2017-07-12T09:00:14.386Z,0.0
2017-07-12T09:01:16.058Z,0.0
2017-07-12T09:02:17.879Z,0.0
2017-07-12T09:03:19.537Z,0.0
2017-07-12T09:04:21.272Z,0.0
2017-07-12T09:05:22.941Z,0.0
2017-07-12T09:06:24.752Z,0.0
2017-07-12T09:07:26.439Z,0.0
2017-07-12T09:08:28.416Z,0.0
2017-07-12T09:09:30.142Z,0.0
2017-07-12T09:10:32.052Z,0.0
2017-07-12T09:11:33.700Z,0.0
2017-07-12T09:12:36.506Z,0.0
2017-07-12T09:13:38.172Z,0.0
2017-07-12T09:14:40.023Z,0.0
2017-07-12T09:15:41.714Z,0.0
2017-07-12T09:16:43.498Z,0.0
2017-07-12T09:17:45.157Z,0.0
2017-07-12T09:18:47.045Z,0.0
2017-07-12T09:19:48.736Z,0.0
2017-07-12T09:20:50.556Z,0.0
2017-07-12T09:21:52.237Z,0.0
2017-07-12T09:22:54.368Z,0.0
2017-07-12T09:23:56.039Z,0.0
2017-07-12T10:08:16.957Z,5.00
2017-07-12T10:15:10.420Z,14.50
2017-07-12T10:17:37.968Z,11.23
2017-07-12T10:20:05.556Z,10.63
2017-07-12T10:22:33.533Z,10.57
2017-07-12T10:25:01.167Z,11.17
2017-07-12T10:27:28.730Z,10.50
2017-07-12T10:29:56.677Z,10.13
2017-07-12T10:32:24.285Z,10.37
2017-07-12T10:34:51.959Z,10.80
2017-07-12T10:37:19.516Z,10.33
2017-07-12T10:39:47.173Z,10.33
2017-07-12T10:42:14.742Z,10.57
2017-07-12T10:44:42.344Z,10.47
2017-07-12T10:47:10.012Z,10.27
2017-07-12T10:49:45.949Z,9.40
2017-07-12T10:52:05.226Z,9.47
2017-07-12T10:54:32.828Z,9.00
2017-07-12T10:57:00.481Z,10.00
2017-07-12T10:59:28.320Z,9.33
2017-07-12T11:01:55.944Z,9.30
2017-07-12T11:04:23.512Z,9.00
2017-07-12T11:06:51.098Z,9.00
2017-07-12T11:09:18.701Z,9.10
2017-07-12T11:11:46.367Z,8.87
2017-07-12T11:14:14.714Z,8.50
2017-07-12T11:16:43.230Z,7.90
2017-07-12T11:19:11.639Z,7.50
2017-07-12T11:21:39.250Z,6.70
2017-07-12T11:24:06.926Z,7.23
2017-07-12T11:26:34.542Z,7.70
2017-07-12T11:29:02.134Z,8.10
2017-07-12T11:31:29.756Z,7.70
2017-07-12T11:33:57.394Z,9.27
2017-07-12T11:36:24.936Z,7.80
2017-07-12T11:38:52.594Z,7.90
2017-07-12T11:41:20.139Z,8.30
2017-07-12T11:43:47.741Z,7.80
2017-07-12T11:46:15.309Z,7.53
2017-07-12T11:48:42.980Z,7.73
2017-07-12T11:51:10.570Z,7.90
2017-07-12T11:53:38.932Z,8.00
2017-07-12T11:56:06.565Z,7.90
2017-07-12T11:58:34.220Z,7.50
2017-07-12T12:01:01.837Z,7.63
2017-07-12T12:03:29.464Z,7.50
2017-07-12T12:05:57.060Z,7.27
2017-07-12T12:08:25.030Z,7.83
2017-07-12T12:10:52.653Z,8.20
2017-07-12T12:13:20.351Z,7.23
2017-07-12T12:15:47.985Z,8.40
2017-07-12T12:18:16.411Z,8.83
2017-07-12T12:20:44.114Z,12.33
2017-07-12T12:23:11.866Z,11.90
2017-07-12T12:25:39.493Z,9.40
2017-07-12T12:28:07.171Z,7.23
2017-07-12T12:30:34.831Z,8.57
2017-07-12T12:33:02.419Z,7.17
2017-07-12T12:35:29.992Z,7.60
2017-07-12T12:37:57.624Z,7.10
2017-07-12T12:40:26.002Z,7.67
2017-07-12T12:42:53.544Z,7.90
2017-07-12T12:45:21.964Z,8.17
2017-07-12T12:47:49.614Z,8.60
2017-07-12T12:50:17.306Z,10.67
2017-07-12T12:52:45.039Z,7.87
2017-07-12T12:55:13.627Z,12.80
2017-07-12T12:57:41.341Z,8.10
2017-07-12T13:00:08.982Z,8.67
2017-07-12T13:02:36.569Z,6.97
2017-07-12T13:05:24.108Z,6.50
2017-07-12T13:07:51.724Z,6.50
2017-07-12T13:10:20.133Z,6.27
2017-07-12T13:12:47.810Z,8.40
2017-07-12T13:15:15.457Z,7.10
2017-07-12T13:17:43.899Z,6.70
2017-07-12T13:20:11.556Z,9.40
2017-07-12T13:22:39.159Z,7.07
2017-07-12T13:25:06.834Z,9.83
2017-07-12T13:27:34.449Z,8.00
2017-07-12T13:30:02.172Z,7.70
2017-07-12T13:32:29.779Z,10.70
2017-07-12T13:34:57.442Z,6.87
2017-07-12T13:37:25.051Z,7.40
2017-07-12T13:39:52.629Z,6.80
2017-07-12T13:42:20.191Z,6.77
2017-07-12T13:44:47.805Z,6.27
2017-07-12T13:47:15.360Z,7.47
2017-07-12T13:49:43.029Z,8.17
2017-07-12T13:52:10.601Z,6.73
2017-07-12T13:54:38.217Z,7.00
2017-07-12T13:57:05.849Z,7.40
2017-07-12T13:59:33.427Z,8.20
2017-07-12T14:02:00.963Z,7.17
2017-07-12T14:04:29.312Z,7.27
2017-07-12T14:06:56.848Z,7.17
2017-07-12T14:09:24.441Z,6.80
2017-07-12T14:11:52.740Z,6.83
2017-07-12T14:14:20.380Z,6.30
2017-07-12T14:16:48.192Z,6.57
2017-07-12T14:19:16.519Z,5.93
2017-07-12T14:21:44.207Z,6.30
2017-07-12T14:24:11.801Z,7.63
2017-07-12T14:26:39.540Z,7.60
2017-07-12T14:29:08.082Z,7.00
2017-07-12T14:31:35.685Z,7.33
2017-07-12T14:34:03.233Z,7.00
2017-07-12T14:36:30.840Z,7.73
2017-07-12T14:38:58.391Z,5.87
2017-07-12T14:41:26.007Z,8.77
2017-07-12T14:43:53.548Z,7.33
2017-07-12T14:46:21.131Z,6.40
2017-07-12T14:48:48.768Z,5.57
2017-07-12T14:51:16.421Z,6.63
2017-07-12T14:53:44.009Z,7.90
2017-07-12T14:56:11.606Z,8.40
2017-07-12T14:58:39.155Z,6.97
2017-07-12T15:01:06.748Z,7.80
2017-07-12T15:03:34.312Z,8.47
2017-07-12T15:05:48.810Z,0.0
2017-07-12T15:06:02.734Z,8.37
2017-07-12T15:06:50.636Z,0.0
2017-07-12T15:07:52.299Z,959.6
2017-07-12T15:08:30.992Z,8.40
2017-07-12T15:08:54.056Z,965.8
2017-07-12T15:09:55.777Z,990.7
2017-07-12T15:10:57.580Z,984.4
2017-07-12T15:10:58.586Z,8.00
2017-07-12T15:11:59.278Z,988.2
2017-07-12T15:13:01.053Z,985.8
2017-07-12T15:13:26.889Z,8.60
2017-07-12T15:14:02.724Z,988.0
2017-07-12T15:15:05.477Z,983.3
2017-07-12T15:15:54.472Z,8.30
2017-07-12T15:16:07.153Z,979.6
2017-07-12T15:17:09.878Z,984.9
2017-07-12T15:18:11.568Z,990.8
2017-07-12T15:18:22.017Z,8.50
2017-07-12T15:19:14.394Z,984.7
2017-07-12T15:20:16.047Z,989.6
2017-07-12T15:20:49.596Z,8.10
2017-07-12T15:21:17.972Z,988.1
2017-07-12T15:22:19.621Z,983.5
2017-07-12T15:23:17.136Z,8.47
2017-07-12T15:23:22.647Z,975.9
2017-07-12T15:24:24.362Z,981.9
2017-07-12T15:25:26.247Z,977.3
2017-07-12T15:25:44.738Z,7.80
2017-07-12T15:26:27.941Z,993.5
2017-07-12T15:27:29.847Z,990.0
2017-07-12T15:28:12.324Z,7.63
2017-07-12T15:28:31.515Z,984.3
2017-07-12T15:29:33.329Z,990.1
2017-07-12T15:30:35.247Z,988.8
2017-07-12T15:30:39.924Z,8.10
2017-07-12T15:31:38.371Z,994.0
2017-07-12T15:32:40.055Z,0.0
2017-07-12T15:33:07.478Z,11.23
2017-07-12T15:33:42.814Z,0.0
2017-07-12T15:34:44.504Z,0.0
2017-07-12T15:35:35.068Z,11.77
2017-07-12T15:35:52.330Z,0.0
2017-07-12T15:36:54.036Z,0.0
2017-07-12T15:37:55.856Z,0.0
2017-07-12T15:38:02.641Z,12.07
2017-07-12T15:38:57.539Z,0.0
2017-07-12T15:39:59.573Z,0.0
2017-07-12T15:40:30.232Z,11.33
2017-07-12T15:41:01.346Z,0.0
2017-07-12T15:42:04.117Z,0.0
2017-07-12T15:42:58.553Z,11.70
2017-07-12T15:43:05.809Z,0.0
2017-07-12T15:44:26.056Z,0.0
2017-07-12T15:45:26.138Z,12.07
2017-07-12T15:45:28.033Z,0.0
2017-07-12T15:46:29.714Z,0.0
2017-07-12T15:47:32.591Z,0.0
2017-07-12T15:47:53.684Z,12.23
2017-07-12T15:48:24.623Z,0.0
2017-07-12T15:49:26.421Z,0.0
2017-07-12T15:50:21.225Z,11.27
2017-07-12T15:50:28.080Z,0.0
2017-07-12T15:51:29.841Z,0.0
2017-07-12T15:52:31.578Z,0.0
2017-07-12T15:52:48.818Z,11.93
2017-07-12T15:53:33.329Z,0.0
2017-07-12T15:54:35.156Z,0.0
2017-07-12T15:55:16.386Z,12.50
2017-07-12T15:55:42.919Z,0.0
2017-07-12T15:56:44.583Z,0.0
2017-07-12T15:57:43.997Z,11.77
2017-07-12T16:00:11.571Z,11.40
2017-07-12T16:02:39.192Z,10.10
2017-07-12T16:05:06.747Z,10.10
2017-07-12T16:07:34.324Z,10.10
2017-07-12T16:10:01.864Z,10.27
2017-07-12T16:11:35.591Z,0.0
2017-07-12T16:12:29.445Z,9.90
2017-07-12T16:12:37.354Z,0.0
2017-07-12T16:13:39.241Z,0.0
2017-07-12T16:14:57.757Z,9.83
2017-07-12T16:17:25.329Z,9.83
2017-07-12T16:19:52.872Z,9.17
2017-07-12T16:22:20.454Z,9.40
2017-07-12T16:24:48.759Z,9.07
2017-07-12T16:27:16.360Z,10.47
2017-07-12T16:29:43.947Z,9.63
2017-07-12T16:32:12.333Z,9.60
2017-07-12T16:34:39.894Z,9.40
2017-07-12T16:37:08.290Z,10.00
2017-07-12T16:39:35.880Z,10.00
2017-07-12T16:42:03.528Z,8.30
2017-07-12T16:44:31.112Z,9.10
2017-07-12T16:46:59.432Z,9.70
2017-07-12T16:49:09.658Z,0.0
2017-07-12T16:49:27.018Z,10.07
2017-07-12T16:51:07.836Z,0.0
2017-07-12T16:51:55.332Z,9.90
2017-07-12T16:52:58.593Z,0.0
2017-07-12T16:54:00.403Z,0.0
2017-07-12T16:54:22.940Z,10.60
2017-07-12T16:55:02.105Z,0.0
2017-07-12T16:56:04.231Z,0.0
2017-07-12T16:56:51.269Z,9.90
2017-07-12T16:57:05.972Z,0.0
2017-07-12T16:58:07.641Z,0.0
2017-07-12T16:59:09.318Z,0.0
2017-07-12T16:59:18.979Z,9.07
2017-07-12T17:00:11.237Z,0.0
2017-07-12T17:01:12.967Z,0.0
2017-07-12T17:01:46.566Z,9.93
2017-07-12T17:02:15.034Z,0.0
2017-07-12T17:03:16.742Z,0.0
2017-07-12T17:04:14.174Z,8.93
2017-07-12T17:04:20.584Z,0.0
2017-07-12T17:05:22.330Z,0.0
2017-07-12T17:06:25.185Z,0.0
2017-07-12T17:06:41.885Z,9.83
2017-07-12T17:07:27.012Z,0.0
2017-07-12T17:08:30.815Z,0.0
2017-07-12T17:09:10.239Z,9.90
2017-07-12T17:09:32.554Z,0.0
2017-07-12T17:10:39.335Z,0.0
2017-07-12T17:11:37.794Z,9.97
2017-07-12T17:11:41.032Z,0.0
2017-07-12T17:12:44.813Z,0.0
2017-07-12T17:13:46.879Z,0.0
2017-07-12T17:14:06.148Z,10.10
2017-07-12T17:14:48.734Z,0.0
2017-07-12T17:15:50.414Z,0.0
2017-07-12T17:16:33.700Z,10.03
2017-07-12T17:16:53.259Z,0.0
2017-07-12T17:17:55.031Z,0.0
2017-07-12T17:18:56.880Z,0.0
2017-07-12T17:19:02.053Z,9.80
2017-07-12T17:19:58.690Z,0.0
2017-07-12T17:21:00.557Z,0.0
2017-07-12T17:21:29.601Z,10.70
2017-07-12T17:22:02.253Z,0.0
2017-07-12T17:23:04.156Z,0.0
2017-07-12T17:23:57.952Z,9.43
2017-07-12T17:24:05.860Z,0.0
2017-07-12T17:25:07.638Z,0.0
2017-07-12T17:26:09.335Z,0.0
2017-07-12T17:26:25.501Z,9.47
2017-07-12T17:27:11.172Z,0.0
2017-07-12T17:28:13.001Z,0.0
2017-07-12T17:28:53.092Z,8.53
2017-07-12T17:29:14.702Z,0.0
2017-07-12T17:30:16.571Z,0.0
2017-07-12T17:31:18.643Z,0.0
2017-07-12T17:31:20.645Z,8.40
2017-07-12T17:32:21.216Z,0.0
2017-07-12T17:33:23.027Z,0.0
2017-07-12T17:33:48.247Z,8.43
2017-07-12T17:34:24.979Z,0.0
2017-07-12T17:35:26.704Z,0.0
2017-07-12T17:36:16.583Z,7.80
2017-07-12T17:36:28.522Z,0.0
2017-07-12T17:37:30.377Z,0.0
2017-07-12T17:38:39.054Z,0.0
2017-07-12T17:38:44.217Z,9.30
2017-07-12T17:39:41.206Z,0.0
2017-07-12T17:40:43.738Z,0.0
2017-07-12T17:41:12.105Z,8.80
2017-07-12T17:41:45.485Z,0.0
2017-07-12T17:42:47.365Z,0.0
2017-07-12T17:43:40.471Z,8.60
2017-07-12T17:43:49.024Z,0.0
2017-07-12T17:44:50.969Z,0.0
2017-07-12T17:45:54.608Z,0.0
2017-07-12T17:46:08.794Z,8.90
2017-07-12T17:46:56.452Z,0.0
2017-07-12T17:47:58.200Z,0.0
2017-07-12T17:48:36.385Z,8.83
2017-07-12T17:49:00.294Z,0.0
2017-07-12T17:50:02.370Z,0.0
2017-07-12T17:51:04.349Z,0.0
2017-07-12T17:51:04.694Z,8.50
2017-07-12T17:52:06.045Z,0.0
2017-07-12T17:53:32.249Z,7.90
2017-07-12T17:55:59.826Z,8.53
2017-07-12T17:58:27.364Z,8.20
2017-07-12T18:00:54.932Z,8.10
2017-07-12T18:03:23.248Z,7.27
2017-07-12T18:05:50.835Z,8.07
2017-07-12T18:08:18.369Z,8.33
2017-07-12T18:10:45.988Z,8.67
2017-07-12T18:13:13.683Z,9.50
2017-07-12T18:15:41.984Z,8.77
2017-07-12T18:18:09.553Z,8.97
2017-07-12T18:20:37.129Z,7.73
2017-07-12T18:23:04.663Z,8.20
2017-07-12T18:25:32.251Z,9.63
2017-07-12T18:27:59.793Z,9.10
2017-07-12T18:30:27.848Z,8.30
2017-07-12T18:32:55.662Z,8.80